Time;durP1;ratioP1;P1;durP2;ratioP2;P2;SDS_P1;SDS_P2;PMS_P1;PMS_P2;Temp;Humidity;BMP_temperature;BMP_pressure;BME280_temperature;BME280_humidity;BME280_pressure;Samples;Min_cycle;Max_cycle;Signal;HPM_P1;HPM_P2
2022/01/16 00:06:25;;;;;;;11.40;5.80;;;;;;;0.27;77.57;95424.59;4973508;28;20205;-60
2022/01/16 00:08:51;;;;;;;11.57;6.23;;;;;;;0.37;77.78;95425.94;4973240;28;20175;-62
2022/01/16 00:11:16;;;;;;;10.60;5.67;;;;;;;0.26;78.57;95393.81;4972924;28;20639;-61
2022/01/16 00:13:42;;;;;;;13.43;5.93;;;;;;;0.33;79.15;95400.22;4972951;28;20211;-60
2022/01/16 00:16:12;;;;;;;9.23;5.33;;;;;;;0.23;80.54;95388.06;4971602;28;20200;-64
2022/01/16 00:18:49;;;;;;;11.37;6.37;;;;;;;0.26;80.77;95386.31;4972855;28;20176;-62
2022/01/16 00:21:26;;;;;;;8.67;4.73;;;;;;;0.38;81.67;95402.56;4972938;28;20199;-60
2022/01/16 00:23:52;;;;;;;9.93;5.43;;;;;;;0.40;82.52;95413.34;4973013;28;20168;-60
2022/01/16 00:26:20;;;;;;;9.53;5.13;;;;;;;0.39;83.49;95419.19;4972621;28;20211;-61
2022/01/16 00:28:45;;;;;;;10.80;5.50;;;;;;;0.23;85.64;95391.41;4972686;28;20267;-63
2022/01/16 00:31:11;;;;;;;10.17;5.53;;;;;;;0.33;86.00;95451.91;4972422;28;20762;-62
2022/01/16 00:33:42;;;;;;;12.17;6.93;;;;;;;0.45;86.31;95434.00;4971317;28;20222;-62
2022/01/16 00:36:10;;;;;;;9.57;5.63;;;;;;;0.34;87.70;95323.53;4971234;28;20539;-63
2022/01/16 00:38:39;;;;;;;10.23;6.33;;;;;;;0.27;89.03;95330.44;4971256;28;20234;-60
2022/01/16 00:41:05;;;;;;;12.47;5.93;;;;;;;0.41;89.18;95398.28;4972674;28;20656;-58
2022/01/16 00:43:30;;;;;;;8.27;5.77;;;;;;;0.28;89.33;95299.59;4971201;28;20184;-61
2022/01/16 00:45:55;;;;;;;10.37;6.10;;;;;;;0.17;91.45;95229.13;4972966;28;20276;-63
2022/01/16 00:48:21;;;;;;;10.93;5.60;;;;;;;0.23;91.31;95300.59;4972496;28;20555;-63
2022/01/16 00:50:46;;;;;;;9.67;6.37;;;;;;;0.20;91.74;95225.72;4972899;28;20290;-63
2022/01/16 00:53:12;;;;;;;12.70;5.93;;;;;;;0.20;92.25;95191.56;4971404;28;20184;-63
2022/01/16 00:55:38;;;;;;;12.10;6.60;;;;;;;0.21;92.51;95243.16;4972733;28;20298;-60
2022/01/16 00:58:04;;;;;;;11.03;6.97;;;;;;;0.20;93.11;95213.22;4972314;28;20179;-61
2022/01/16 01:00:32;;;;;;;12.13;6.53;;;;;;;0.31;92.76;95236.13;4972618;28;20708;-62
2022/01/16 01:02:58;;;;;;;10.77;6.63;;;;;;;0.38;92.32;95290.06;4970790;28;20606;-59
2022/01/16 01:05:24;;;;;;;11.03;6.50;;;;;;;0.47;92.17;95324.72;4972564;28;20341;-61
2022/01/16 01:07:56;;;;;;;9.80;5.90;;;;;;;0.26;92.97;95295.50;4970889;28;20336;-59
2022/01/16 01:10:30;;;;;;;13.87;5.90;;;;;;;0.34;93.50;95289.38;4972400;28;20717;-64
2022/01/16 01:13:08;;;;;;;11.63;6.23;;;;;;;0.33;92.76;95316.91;4971073;28;20253;-58
2022/01/16 01:15:44;;;;;;;12.43;6.47;;;;;;;0.27;93.37;95320.44;4972263;28;20298;-58
2022/01/16 01:18:10;;;;;;;10.93;5.47;;;;;;;0.24;93.53;95295.56;4972135;28;20283;-62
2022/01/16 01:20:36;;;;;;;11.17;6.30;;;;;;;0.19;94.14;95296.56;4972439;28;20212;-59
2022/01/16 01:23:02;;;;;;;10.57;5.70;;;;;;;0.21;93.66;95297.31;4972147;28;20189;-62
2022/01/16 01:25:27;;;;;;;9.87;6.17;;;;;;;0.21;93.78;95284.81;4954375;28;20345;-59
2022/01/16 01:27:53;;;;;;;11.67;5.67;;;;;;;0.34;93.70;95304.38;4971917;28;20587;-62
2022/01/16 01:30:23;;;;;;;9.77;5.97;;;;;;;0.52;92.83;95321.22;4971756;28;20206;-63
2022/01/16 01:32:49;;;;;;;10.07;6.10;;;;;;;0.51;93.16;95309.56;4970481;28;20273;-62
2022/01/16 01:35:16;;;;;;;9.57;6.17;;;;;;;0.70;92.20;95323.06;4971465;28;20294;-61
2022/01/16 01:37:43;;;;;;;13.23;5.63;;;;;;;0.77;91.78;95343.66;4971702;28;20705;-63
2022/01/16 01:40:11;;;;;;;9.00;5.83;;;;;;;0.72;91.41;95338.00;4970376;28;20269;-58
2022/01/16 01:42:44;;;;;;;13.53;6.40;;;;;;;0.82;91.33;95359.34;4971559;28;20641;-61
2022/01/16 01:51:06;;;;;;;10.93;5.93;;;;;;;1.23;88.79;95405.41;4972313;28;20227;-62
2022/01/16 01:53:32;;;;;;;10.40;5.93;;;;;;;1.37;87.43;95406.53;4971467;28;20644;-62
2022/01/16 01:55:58;;;;;;;10.97;6.50;;;;;;;1.31;87.92;95379.22;4971588;28;20712;-62
2022/01/16 01:58:23;;;;;;;9.53;5.87;;;;;;;1.42;87.55;95392.13;4971469;28;20181;-62
2022/01/16 02:00:49;;;;;;;10.90;6.13;;;;;;;1.51;86.99;95404.31;4971721;28;20208;-63
2022/01/16 02:03:29;;;;;;;10.10;6.13;;;;;;;1.64;85.80;95405.47;4971204;28;20262;-62
2022/01/16 02:05:54;;;;;;;9.77;6.07;;;;;;;1.63;84.72;95438.94;4969828;28;20212;-60
2022/01/16 02:08:20;;;;;;;9.57;5.50;;;;;;;1.56;84.14;95434.19;4971194;28;20183;-62
2022/01/16 02:10:46;;;;;;;11.73;6.30;;;;;;;1.42;84.17;95447.22;4971531;28;20212;-63
2022/01/16 02:13:22;;;;;;;12.47;6.17;;;;;;;1.27;84.46;95447.78;4971244;28;20176;-61
2022/01/16 02:31:42;;;;;;;8.57;4.70;;;;;;;1.10;82.65;95460.09;4970875;28;20586;-61
2022/01/16 02:36:56;;;;;;;7.87;4.80;;;;;;;1.04;82.26;95449.47;4970848;28;20245;-62
2022/01/16 02:39:25;;;;;;;10.83;5.63;;;;;;;0.90;82.92;95427.44;4970916;28;20216;-62
2022/01/16 02:41:53;;;;;;;7.57;4.93;;;;;;;0.72;84.47;95395.56;4970807;28;20326;-58
2022/01/16 02:46:45;;;;;;;13.60;7.80;;;;;;;0.19;92.79;95327.38;4970689;28;20191;-62
2022/01/16 02:49:23;;;;;;;12.47;6.93;;;;;;;0.52;92.01;95350.41;4969327;28;20187;-60
2022/01/16 02:51:56;;;;;;;14.87;8.00;;;;;;;0.21;94.83;95339.81;4969316;28;20241;-64
2022/01/16 02:54:22;;;;;;;13.40;7.77;;;;;;;0.26;96.85;95323.81;4970501;28;20216;-62
2022/01/16 02:56:48;;;;;;;14.73;7.97;;;;;;;0.15;98.41;95337.53;4970423;28;20199;-62
2022/01/16 02:59:15;;;;;;;16.77;8.03;;;;;;;0.06;100.00;95328.66;4969912;28;20184;-63
2022/01/16 03:01:41;;;;;;;14.83;8.47;;;;;;;0.11;100.00;95334.31;4969654;28;20191;-58
2022/01/16 03:04:07;;;;;;;14.23;8.40;;;;;;;-0.01;100.00;95328.06;4970451;28;20191;-62
2022/01/16 03:06:34;;;;;;;13.97;8.00;;;;;;;-0.14;100.00;95343.47;4970377;28;20200;-63
2022/01/16 03:09:00;;;;;;;14.17;7.70;;;;;;;-0.06;100.00;95337.38;4970536;28;20333;-61
2022/01/16 03:11:35;;;;;;;12.47;7.47;;;;;;;-0.21;100.00;95340.38;4970241;28;20746;-61
2022/01/16 03:14:11;;;;;;;11.97;7.20;;;;;;;-0.11;100.00;95338.41;4969097;28;20223;-62
2022/01/16 03:16:41;;;;;;;14.60;7.97;;;;;;;-0.07;100.00;95343.25;4969734;28;20289;-63
2022/01/16 03:21:54;;;;;;;13.07;7.77;;;;;;;-0.03;100.00;95341.44;4970366;28;20206;-63
2022/01/16 03:24:30;;;;;;;10.87;7.13;;;;;;;-0.16;100.00;95338.53;4968776;28;20188;-59
2022/01/16 03:26:58;;;;;;;11.17;7.60;;;;;;;0.09;100.00;95337.72;4968793;28;20225;-63
2022/01/16 03:29:27;;;;;;;11.50;8.00;;;;;;;0.04;100.00;95340.41;4970166;28;20191;-61
2022/01/16 03:31:55;;;;;;;12.47;7.77;;;;;;;0.09;100.00;95345.22;4970095;28;20186;-61
2022/01/16 03:34:21;;;;;;;11.77;7.73;;;;;;;-0.09;100.00;95337.47;4970044;28;20269;-61
2022/01/16 03:36:46;;;;;;;13.63;7.97;;;;;;;0.15;100.00;95350.84;4970033;28;20572;-60
2022/01/16 03:39:12;;;;;;;12.03;7.07;;;;;;;0.13;100.00;95354.25;4970137;28;20194;-62
2022/01/16 03:41:38;;;;;;;12.57;7.77;;;;;;;0.01;100.00;95352.97;4970488;28;20203;-63
2022/01/16 03:44:06;;;;;;;14.20;8.30;;;;;;;0.08;100.00;95361.09;4968706;28;20557;-59
2022/01/16 03:46:37;;;;;;;14.77;8.50;;;;;;;0.05;100.00;95348.69;4970077;28;20231;-59
2022/01/16 03:49:08;;;;;;;11.23;7.70;;;;;;;0.00;100.00;95348.88;4969600;28;20191;-63
2022/01/16 03:51:35;;;;;;;16.40;8.43;;;;;;;-0.02;100.00;95351.38;4968306;28;20223;-62
2022/01/16 03:54:01;;;;;;;11.30;6.77;;;;;;;-0.09;100.00;95344.16;4968493;28;20234;-62
2022/01/16 03:56:27;;;;;;;13.93;7.87;;;;;;;0.24;100.00;95363.03;4970092;28;20443;-62
2022/01/16 03:58:53;;;;;;;16.27;7.57;;;;;;;0.13;100.00;95365.06;4969775;28;20677;-60
2022/01/16 04:01:18;;;;;;;11.10;7.43;;;;;;;0.15;100.00;95363.34;4969715;28;20210;-63
2022/01/16 04:03:44;;;;;;;11.80;7.10;;;;;;;0.22;100.00;95358.97;4977420;23;20293;-63
2022/01/16 04:06:10;;;;;;;9.77;6.47;;;;;;;0.19;100.00;95371.53;4969691;28;20313;-62
2022/01/16 04:08:35;;;;;;;15.10;6.77;;;;;;;0.43;100.00;95376.53;4977197;23;20239;-59
2022/01/16 04:11:01;;;;;;;13.23;7.80;;;;;;;0.47;100.00;95368.06;4969623;28;20200;-61
2022/01/16 04:13:27;;;;;;;12.80;7.67;;;;;;;0.49;100.00;95386.34;4969837;28;20583;-63
2022/01/16 04:15:52;;;;;;;12.10;7.40;;;;;;;0.28;100.00;95377.06;4969534;28;20222;-60
2022/01/16 04:18:18;;;;;;;13.13;6.77;;;;;;;0.34;100.00;95381.88;4969933;28;20273;-60
2022/01/16 04:20:44;;;;;;;14.10;7.10;;;;;;;0.34;100.00;95386.88;4969451;28;20192;-59
2022/01/16 04:23:12;;;;;;;13.97;7.83;;;;;;;0.47;100.00;95394.75;4969673;28;20569;-62
2022/01/16 04:25:38;;;;;;;12.43;6.97;;;;;;;0.43;100.00;95400.72;4969758;28;20684;-62
2022/01/16 04:28:04;;;;;;;14.27;7.90;;;;;;;0.28;100.00;95394.56;4973087;28;20195;-62
2022/01/16 04:30:30;;;;;;;14.93;8.60;;;;;;;0.07;100.00;95376.94;4971328;28;20203;-63
2022/01/16 04:32:55;;;;;;;14.00;7.43;;;;;;;0.42;100.00;95399.09;4972980;28;20200;-59
2022/01/16 04:35:21;;;;;;;12.73;7.17;;;;;;;0.36;100.00;95409.31;4972674;28;20676;-64
2022/01/16 04:37:47;;;;;;;12.00;7.50;;;;;;;0.59;100.00;95407.66;4973055;28;20194;-60
2022/01/16 04:40:14;;;;;;;11.73;7.20;;;;;;;0.90;97.40;95426.63;4972332;28;20269;-62
2022/01/16 04:45:24;;;;;;;13.30;7.57;;;;;;;0.48;99.55;95401.41;4972731;28;20272;-61
2022/01/16 04:47:50;;;;;;;14.40;7.40;;;;;;;0.73;98.89;95413.00;4972642;28;20190;-63
2022/01/16 04:50:16;;;;;;;12.70;7.80;;;;;;;0.73;97.53;95428.00;4972573;28;20219;-62
2022/01/16 04:52:45;;;;;;;12.70;7.60;;;;;;;0.54;98.64;95402.00;4972560;28;20267;-59
2022/01/16 04:55:12;;;;;;;14.63;7.90;;;;;;;0.47;98.71;95394.75;4972249;28;20226;-63
2022/01/16 04:57:38;;;;;;;15.83;8.37;;;;;;;0.29;99.39;95387.88;4971009;28;20200;-63
2022/01/16 05:00:10;;;;;;;11.53;7.60;;;;;;;0.31;99.81;95383.63;4972206;28;20627;-61
2022/01/16 05:02:54;;;;;;;16.00;8.07;;;;;;;0.66;98.99;95395.78;4972041;28;20232;-63
2022/01/16 05:05:20;;;;;;;17.13;10.00;;;;;;;0.65;99.47;95401.63;4972407;28;20288;-63
2022/01/16 05:07:45;;;;;;;20.70;10.50;;;;;;;0.90;98.06;95417.44;4972285;28;20228;-62
2022/01/16 05:10:12;;;;;;;15.03;8.60;;;;;;;1.07;96.09;95415.13;4972139;28;20750;-63
2022/01/16 05:12:41;;;;;;;17.53;10.30;;;;;;;1.10;95.55;95417.53;4970773;28;20211;-63
2022/01/16 05:17:52;;;;;;;16.80;10.50;;;;;;;1.23;94.85;95405.41;4972243;28;20611;-60
2022/01/16 05:20:18;;;;;;;15.90;9.83;;;;;;;1.30;94.23;95415.13;4970762;28;20208;-60
2022/01/16 05:22:43;;;;;;;19.13;10.13;;;;;;;1.27;94.31;95412.72;4970725;28;20231;-63
2022/01/16 05:25:11;;;;;;;21.83;12.47;;;;;;;1.49;91.91;95445.31;4972256;28;20233;-59
2022/01/16 05:27:37;;;;;;;28.17;13.57;;;;;;;1.45;92.89;95416.25;4970656;28;20204;-62
2022/01/16 05:30:03;;;;;;;25.97;14.27;;;;;;;1.42;92.44;95422.19;4970751;28;20329;-59
2022/01/16 05:32:29;;;;;;;22.33;12.77;;;;;;;1.30;94.36;95401.78;4971890;28;20228;-63
2022/01/16 05:34:54;;;;;;;18.53;10.93;;;;;;;1.29;94.75;95405.16;4970263;28;20227;-61
2022/01/16 05:37:19;;;;;;;20.90;11.13;;;;;;;1.23;92.92;95423.72;4971903;28;20312;-63
2022/01/16 05:39:47;;;;;;;24.90;12.23;;;;;;;1.18;95.33;95395.53;4971166;28;20632;-62
2022/01/16 05:42:13;;;;;;;21.33;13.13;;;;;;;1.50;92.70;95425.22;4971846;28;20200;-59
2022/01/16 05:44:39;;;;;;;24.13;11.93;;;;;;;1.52;92.24;95430.16;4971648;28;20596;-63
2022/01/16 05:47:06;;;;;;;22.97;13.00;;;;;;;1.73;91.06;95456.13;4970191;28;20201;-61
2022/01/16 05:49:32;;;;;;;19.77;12.23;;;;;;;1.84;90.71;95456.53;4969967;28;20196;-61
2022/01/16 05:51:58;;;;;;;25.70;12.87;;;;;;;1.83;89.94;95457.41;4971540;28;20205;-61
2022/01/16 05:54:23;;;;;;;20.97;12.97;;;;;;;1.68;91.07;95454.59;4971146;28;20208;-61
2022/01/16 05:56:49;;;;;;;23.13;13.53;;;;;;;1.48;91.66;95431.97;4971515;28;20623;-62
2022/01/16 05:59:15;;;;;;;24.17;12.77;;;;;;;1.60;91.39;95448.22;4971395;28;20180;-59
2022/01/16 06:01:40;;;;;;;19.47;12.00;;;;;;;1.56;92.11;95442.53;4971130;28;20184;-59
2022/01/16 06:04:05;;;;;;;25.90;14.43;;;;;;;1.77;90.94;95460.97;4971291;28;20271;-62
2022/01/16 06:06:31;;;;;;;23.77;12.67;;;;;;;1.53;90.58;95452.69;4971641;28;20286;-64
2022/01/16 06:08:59;;;;;;;23.73;14.27;;;;;;;1.52;89.99;95468.56;4971648;28;20193;-62
2022/01/16 06:11:24;;;;;;;23.03;12.07;;;;;;;1.36;92.12;95434.09;4971399;28;20201;-60
2022/01/16 06:13:52;;;;;;;22.70;12.77;;;;;;;1.61;90.75;95443.19;4971546;28;20695;-62
2022/01/16 06:16:17;;;;;;;22.67;13.00;;;;;;;1.52;90.94;95438.50;4969727;28;20196;-61
2022/01/16 06:18:43;;;;;;;17.63;10.60;;;;;;;1.47;91.17;95435.38;4971662;28;20190;-64
2022/01/16 06:21:09;;;;;;;18.33;10.67;;;;;;;1.67;91.83;95435.44;4970955;28;20266;-63
2022/01/16 06:23:34;;;;;;;19.93;11.07;;;;;;;1.42;90.98;95452.25;4971357;28;20257;-61
2022/01/16 06:25:59;;;;;;;18.37;11.27;;;;;;;0.84;93.18;95418.47;4970954;28;20666;-62
2022/01/16 06:28:27;;;;;;;21.50;11.37;;;;;;;0.84;94.47;95417.66;4971520;28;20196;-59
2022/01/16 06:30:53;;;;;;;21.43;11.70;;;;;;;1.11;95.53;95410.84;4969400;28;20210;-59
2022/01/16 06:33:19;;;;;;;17.33;8.90;;;;;;;1.23;92.56;95458.78;4971436;28;20267;-61
2022/01/16 06:35:45;;;;;;;15.90;8.77;;;;;;;1.40;92.48;95464.00;4976766;23;20231;-60
2022/01/16 06:38:11;;;;;;;18.27;10.70;;;;;;;1.49;90.62;95477.88;4970784;28;20191;-62
2022/01/16 06:40:36;;;;;;;17.40;9.93;;;;;;;1.79;89.28;95508.50;4970567;28;20251;-59
2022/01/16 06:43:02;;;;;;;18.10;10.70;;;;;;;1.82;88.73;95510.91;4970658;28;20211;-63
2022/01/16 06:45:28;;;;;;;20.37;10.97;;;;;;;1.45;89.64;95482.19;4970989;28;20538;-59
2022/01/16 06:47:54;;;;;;;18.57;11.40;;;;;;;1.18;90.82;95469.81;4970887;28;20265;-62
2022/01/16 06:50:20;;;;;;;19.80;10.87;;;;;;;1.32;91.28;95467.66;4968360;28;20212;-62
2022/01/16 06:52:45;;;;;;;21.77;11.67;;;;;;;1.45;91.36;95467.16;4970483;28;20192;-65
2022/01/16 06:55:11;;;;;;;18.67;11.10;;;;;;;1.70;90.11;95497.13;4970811;28;20265;-63
2022/01/16 06:57:36;;;;;;;20.47;12.93;;;;;;;1.77;88.38;95518.59;4970875;28;20266;-60
2022/01/16 07:00:05;;;;;;;25.63;14.73;;;;;;;1.69;89.72;95496.34;4970826;28;20280;-62
2022/01/16 07:02:30;;;;;;;24.17;14.07;;;;;;;1.57;90.62;95481.75;4970516;28;20186;-63
2022/01/16 07:04:56;;;;;;;23.50;15.00;;;;;;;1.48;90.92;95481.25;4969199;28;20213;-62
2022/01/16 07:07:21;;;;;;;26.67;14.57;;;;;;;1.78;90.17;95506.88;4970412;28;20266;-63
2022/01/16 07:09:47;;;;;;;25.43;13.97;;;;;;;1.81;88.85;95519.28;4970820;28;20210;-62
2022/01/16 07:12:13;;;;;;;25.47;13.60;;;;;;;1.77;89.10;95517.78;4969026;28;20596;-60
2022/01/16 07:14:38;;;;;;;23.37;13.97;;;;;;;1.83;88.88;95517.53;4970419;28;20231;-63
2022/01/16 07:17:04;;;;;;;24.90;14.20;;;;;;;1.95;87.68;95548.00;4970480;28;20188;-66
2022/01/16 07:19:30;;;;;;;21.30;12.80;;;;;;;1.81;86.99;95546.84;4970926;28;20212;-62
2022/01/16 07:21:55;;;;;;;32.90;14.00;;;;;;;1.77;88.03;95530.31;4970917;28;20176;-65
2022/01/16 07:24:21;;;;;;;23.13;13.50;;;;;;;1.73;87.14;95534.63;4969853;28;20267;-63
2022/01/16 07:26:47;;;;;;;23.70;12.90;;;;;;;1.83;87.13;95535.09;4971906;28;20283;-66
2022/01/16 07:29:13;;;;;;;21.80;12.10;;;;;;;2.02;86.40;95556.91;4971316;28;20212;-58
2022/01/16 07:31:39;;;;;;;26.37;12.93;;;;;;;1.99;86.22;95543.69;4969556;28;20200;-61
2022/01/16 07:34:06;;;;;;;17.83;10.80;;;;;;;2.13;84.36;95569.06;4971116;28;20704;-64
2022/01/16 07:36:35;;;;;;;19.00;10.93;;;;;;;1.37;85.36;95549.28;4969579;28;20346;-61
2022/01/16 07:39:00;;;;;;;21.83;11.83;;;;;;;1.60;86.42;95530.91;4969544;28;20184;-61
2022/01/16 07:41:26;;;;;;;19.43;11.73;;;;;;;1.84;86.14;95541.75;4969873;28;20205;-62
2022/01/16 07:43:52;;;;;;;19.50;12.07;;;;;;;1.34;86.74;95539.34;4970222;28;20181;-63
2022/01/16 07:46:17;;;;;;;18.03;11.37;;;;;;;1.37;86.44;95534.25;4968712;28;20214;-61
2022/01/16 07:48:43;;;;;;;19.13;11.23;;;;;;;1.42;86.32;95541.59;4970315;28;20643;-62
2022/01/16 07:51:09;;;;;;;23.70;10.87;;;;;;;1.83;85.51;95560.97;4969763;28;20379;-62
2022/01/16 07:53:36;;;;;;;19.30;10.80;;;;;;;2.12;83.92;95579.97;4952328;28;20173;-61
2022/01/16 07:56:03;;;;;;;18.70;10.77;;;;;;;2.13;83.85;95589.94;4970068;28;20236;-64
2022/01/16 07:58:28;;;;;;;19.00;10.73;;;;;;;2.03;84.54;95586.13;4969968;28;20180;-62
2022/01/16 08:00:54;;;;;;;23.00;13.63;;;;;;;2.05;84.72;95576.88;4970884;28;21049;-61
2022/01/16 08:03:19;;;;;;;22.50;12.57;;;;;;;2.10;85.02;95572.47;4972275;28;20203;-63
2022/01/16 08:05:45;;;;;;;20.87;11.97;;;;;;;2.42;84.32;95591.34;4972259;28;20201;-58
2022/01/16 08:08:10;;;;;;;22.97;12.93;;;;;;;2.34;83.88;95585.81;4973170;28;20183;-58
2022/01/16 08:10:36;;;;;;;26.50;13.27;;;;;;;2.42;83.82;95576.31;4972982;28;20212;-63
2022/01/16 08:13:01;;;;;;;21.67;12.80;;;;;;;2.48;83.71;95573.56;4972922;28;20211;-62
2022/01/16 08:15:27;;;;;;;25.40;13.87;;;;;;;2.51;83.95;95570.91;4973443;28;20265;-61
2022/01/16 08:17:53;;;;;;;17.87;11.40;;;;;;;2.76;81.41;95623.50;4972966;28;20189;-61
2022/01/16 08:20:18;;;;;;;21.13;12.73;;;;;;;2.55;82.38;95590.00;4971620;28;20205;-62
2022/01/16 08:22:45;;;;;;;23.70;13.03;;;;;;;2.55;82.60;95595.00;4972759;28;20277;-61
2022/01/16 08:25:10;;;;;;;20.00;12.67;;;;;;;2.69;81.97;95607.84;4971681;28;20205;-64
2022/01/16 08:27:36;;;;;;;22.83;12.57;;;;;;;2.73;82.20;95589.28;4972921;28;20200;-60
2022/01/16 08:30:07;;;;;;;26.57;13.97;;;;;;;2.92;81.87;95604.44;4972369;28;20204;-62
2022/01/16 08:32:32;;;;;;;26.90;14.20;;;;;;;2.88;81.24;95613.78;4971997;28;20339;-64
2022/01/16 08:35:00;;;;;;;26.13;14.77;;;;;;;2.61;81.61;95582.22;4973349;28;20251;-65
2022/01/16 08:37:26;;;;;;;24.27;14.53;;;;;;;2.69;81.72;95592.78;4973221;28;20184;-66
2022/01/16 08:39:51;;;;;;;27.57;15.23;;;;;;;3.21;81.23;95604.88;4973312;28;20211;-63
2022/01/16 08:42:17;;;;;;;25.17;14.13;;;;;;;3.61;78.96;95618.31;4973067;28;20310;-60
2022/01/16 08:44:43;;;;;;;23.53;13.53;;;;;;;4.06;77.03;95649.84;4971772;28;20208;-63
2022/01/16 08:47:10;;;;;;;26.20;13.87;;;;;;;4.58;79.52;95642.50;4972606;28;20174;-63
2022/01/16 08:49:36;;;;;;;26.63;13.90;;;;;;;4.71;75.28;95659.50;4971665;28;20217;-61
2022/01/16 08:52:03;;;;;;;22.23;11.60;;;;;;;4.96;74.05;95660.00;4972706;28;20184;-64
2022/01/16 08:54:28;;;;;;;22.10;12.30;;;;;;;5.38;72.39;95663.88;4972707;28;20229;-59
2022/01/16 08:56:54;;;;;;;21.83;11.53;;;;;;;5.57;70.51;95694.91;4972912;28;20562;-65
2022/01/16 08:59:19;;;;;;;21.47;12.33;;;;;;;5.85;69.39;95697.72;4971215;28;20196;-63
2022/01/16 09:01:45;;;;;;;19.60;11.40;;;;;;;6.06;67.44;95726.94;4972617;28;20689;-59
2022/01/16 09:04:10;;;;;;;18.70;12.00;;;;;;;6.06;67.31;95689.06;4972382;28;20192;-60
2022/01/16 09:06:36;;;;;;;20.47;11.80;;;;;;;5.78;68.08;95669.44;4972339;28;20645;-60
2022/01/16 09:09:02;;;;;;;17.97;11.73;;;;;;;5.80;67.61;95675.22;4972641;28;20689;-63
2022/01/16 09:11:29;;;;;;;19.80;12.03;;;;;;;6.08;66.11;95697.38;4972631;28;20282;-65
2022/01/16 09:13:55;;;;;;;18.07;11.53;;;;;;;5.93;66.79;95683.84;4969883;28;20210;-62
2022/01/16 09:16:21;;;;;;;20.97;11.97;;;;;;;5.94;67.14;95664.44;4971106;28;20626;-63
2022/01/16 09:18:49;;;;;;;18.50;11.67;;;;;;;6.38;65.39;95693.28;4970109;28;20271;-62
2022/01/16 09:21:18;;;;;;;20.33;11.77;;;;;;;6.79;63.66;95732.38;4971551;28;20253;-63
2022/01/16 09:23:45;;;;;;;19.03;11.20;;;;;;;6.38;64.60;95700.88;4971757;28;20634;-61
2022/01/16 09:26:10;;;;;;;20.03;11.83;;;;;;;6.30;63.42;95705.50;4972181;28;20681;-60
2022/01/16 09:28:35;;;;;;;19.17;10.90;;;;;;;6.54;64.34;95693.34;4970469;28;20547;-63
2022/01/16 09:31:01;;;;;;;20.30;12.63;;;;;;;5.75;65.37;95651.13;4970020;28;20280;-63
2022/01/16 09:33:26;;;;;;;17.93;11.43;;;;;;;5.82;65.71;95657.47;4970474;28;20191;-63
2022/01/16 09:35:52;;;;;;;19.70;12.43;;;;;;;5.39;66.31;95632.75;4972180;28;20543;-61
2022/01/16 09:38:18;;;;;;;23.20;12.40;;;;;;;5.33;66.58;95617.94;4970245;28;20201;-60
2022/01/16 09:40:46;;;;;;;20.00;11.57;;;;;;;5.84;65.80;95645.63;4971984;28;20735;-59
2022/01/16 09:43:11;;;;;;;25.87;12.80;;;;;;;5.99;64.47;95666.75;4970249;28;20648;-63
2022/01/16 09:45:37;;;;;;;20.97;12.40;;;;;;;6.17;64.44;95664.13;4971778;28;20230;-60
2022/01/16 09:48:03;;;;;;;17.03;10.67;;;;;;;6.49;62.84;95686.00;4971537;28;20180;-62
2022/01/16 09:50:28;;;;;;;20.53;11.80;;;;;;;6.79;61.73;95696.19;4971635;28;20212;-63
2022/01/16 09:52:54;;;;;;;17.83;10.87;;;;;;;7.35;60.66;95726.78;4971407;28;20586;-64
2022/01/16 09:55:20;;;;;;;18.37;10.93;;;;;;;7.72;60.85;95714.63;4972271;28;20585;-60
2022/01/16 09:57:47;;;;;;;18.97;12.00;;;;;;;7.92;59.52;95720.19;4971367;28;20189;-61
2022/01/16 10:00:15;;;;;;;22.50;12.33;;;;;;;8.34;58.72;95727.84;4971671;28;20211;-62
2022/01/16 10:02:41;;;;;;;16.57;11.90;;;;;;;8.62;57.96;95726.25;4971767;28;20184;-63
2022/01/16 10:05:25;;;;;;;17.47;11.50;;;;;;;8.87;55.88;95759.34;4971582;28;20281;-62
2022/01/16 10:07:51;;;;;;;18.47;12.23;;;;;;;8.95;55.19;95749.53;4971211;28;20704;-63
2022/01/16 10:10:17;;;;;;;17.73;12.90;;;;;;;9.04;55.31;95736.31;4971364;28;20216;-63
2022/01/16 10:12:49;;;;;;;17.20;10.20;;;;;;;9.09;55.59;95729.25;4971056;28;20192;-60
2022/01/16 10:15:24;;;;;;;17.20;10.67;;;;;;;9.14;53.44;95760.22;4971172;28;20265;-62
2022/01/16 10:17:53;;;;;;;15.93;10.47;;;;;;;8.48;54.58;95723.72;4971498;28;20718;-59
2022/01/16 10:20:20;;;;;;;18.90;10.43;;;;;;;8.68;53.38;95746.97;4969986;28;20214;-60
2022/01/16 10:22:47;;;;;;;19.13;11.20;;;;;;;8.46;54.57;95714.47;4971490;28;20187;-63
2022/01/16 10:25:16;;;;;;;21.77;10.90;;;;;;;8.79;54.75;95705.75;4971233;28;20227;-63
2022/01/16 10:27:43;;;;;;;17.47;11.17;;;;;;;9.00;54.24;95714.59;4971113;28;20201;-64
2022/01/16 10:30:19;;;;;;;15.40;10.03;;;;;;;9.31;53.37;95721.94;4971799;28;20274;-61
2022/01/16 10:32:45;;;;;;;15.23;10.33;;;;;;;9.44;52.46;95743.06;4971193;28;20164;-64
2022/01/16 10:35:23;;;;;;;16.43;10.47;;;;;;;9.58;52.24;95730.34;4971314;28;20212;-64
2022/01/16 10:37:54;;;;;;;14.40;9.97;;;;;;;9.61;51.91;95722.53;4971123;28;20258;-64
2022/01/16 10:40:30;;;;;;;17.60;11.10;;;;;;;9.21;51.97;95718.34;4971103;28;20204;-64
2022/01/16 10:42:58;;;;;;;15.73;9.70;;;;;;;9.69;51.01;95744.88;4969527;28;20175;-59
2022/01/16 10:45:25;;;;;;;15.13;10.10;;;;;;;9.68;50.65;95741.53;4971262;28;20216;-63
2022/01/16 10:47:57;;;;;;;15.60;10.43;;;;;;;9.67;50.72;95734.00;4971003;28;20180;-61
2022/01/16 10:50:34;;;;;;;22.77;10.13;;;;;;;9.91;50.00;95728.19;4969372;28;20708;-62
2022/01/16 10:53:07;;;;;;;15.63;10.47;;;;;;;10.05;49.90;95740.81;4970483;28;20253;-64
2022/01/16 10:55:51;;;;;;;18.53;10.63;;;;;;;10.18;50.58;95710.31;4971247;28;20215;-65
2022/01/16 10:58:23;;;;;;;17.57;10.23;;;;;;;9.78;50.14;95711.28;4969049;28;20180;-64
2022/01/16 11:00:59;;;;;;;14.70;9.97;;;;;;;9.67;50.84;95689.13;4954120;28;20215;-67
2022/01/16 11:03:26;;;;;;;14.33;9.93;;;;;;;9.85;50.01;95698.09;4971047;28;20260;-63
2022/01/16 11:05:53;;;;;;;15.17;10.07;;;;;;;10.07;49.22;95723.72;4970896;28;20219;-63
2022/01/16 11:08:21;;;;;;;15.40;9.30;;;;;;;10.17;49.38;95715.53;4969269;28;20194;-64
2022/01/16 11:10:58;;;;;;;15.83;10.63;;;;;;;10.39;48.71;95718.25;4969626;28;20217;-65
2022/01/16 11:13:29;;;;;;;13.73;9.80;;;;;;;10.18;49.58;95701.91;4970520;28;20260;-64
2022/01/16 11:15:58;;;;;;;14.73;9.87;;;;;;;10.26;49.78;95677.59;4970602;28;20327;-62
2022/01/16 11:18:25;;;;;;;16.60;10.03;;;;;;;10.39;49.11;95701.28;4970634;28;20184;-65
2022/01/16 11:21:07;;;;;;;15.50;9.70;;;;;;;10.24;47.70;95721.84;4969370;28;20208;-70
2022/01/16 11:23:48;;;;;;;16.80;10.03;;;;;;;10.08;48.27;95699.13;4969120;28;20725;-63
2022/01/16 11:26:17;;;;;;;16.27;9.70;;;;;;;10.10;49.10;95679.53;4970143;28;20212;-64
2022/01/16 11:28:43;;;;;;;15.67;10.90;;;;;;;10.03;49.57;95666.41;4970113;28;20204;-63
2022/01/16 11:31:11;;;;;;;14.97;9.83;;;;;;;10.29;48.38;95679.94;4970131;28;20232;-64
2022/01/16 11:33:39;;;;;;;20.30;10.40;;;;;;;10.33;48.78;95657.66;4970220;28;20188;-66
2022/01/16 11:36:11;;;;;;;20.67;11.57;;;;;;;10.35;48.41;95666.00;4970034;28;20669;-62
2022/01/16 11:38:45;;;;;;;16.20;10.00;;;;;;;10.31;48.54;95664.59;4970303;28;20175;-59
2022/01/16 11:41:18;;;;;;;16.97;10.33;;;;;;;10.67;48.47;95657.00;4969970;28;20213;-63
2022/01/16 11:43:48;;;;;;;20.43;10.67;;;;;;;10.54;47.81;95671.47;4970198;28;20164;-59
2022/01/16 11:46:16;;;;;;;17.93;10.50;;;;;;;10.48;48.82;95638.84;4970108;28;20582;-60
2022/01/16 11:49:07;;;;;;;15.87;9.63;;;;;;;10.40;47.86;95657.19;4970155;28;20188;-60
2022/01/16 11:51:33;;;;;;;17.60;9.83;;;;;;;10.58;48.38;95639.84;4968893;28;20231;-60
2022/01/16 11:53:58;;;;;;;14.97;10.23;;;;;;;10.68;48.10;95640.84;4968331;28;20624;-60
2022/01/16 11:56:40;;;;;;;15.97;10.37;;;;;;;10.52;48.62;95633.47;4969518;28;20258;-60
2022/01/16 11:59:11;;;;;;;19.60;10.97;;;;;;;10.77;47.19;95670.69;4970121;28;20223;-64
2022/01/16 12:01:43;;;;;;;15.43;11.27;;;;;;;10.56;46.90;95665.38;4968511;28;20295;-60
2022/01/16 12:04:28;;;;;;;17.57;11.13;;;;;;;10.88;46.06;95679.22;4969886;28;20188;-62
2022/01/16 12:07:17;;;;;;;16.70;11.57;;;;;;;10.86;46.93;95650.53;4973032;28;20200;-63
2022/01/16 12:12:14;;;;;;;16.83;10.43;;;;;;;10.89;47.60;95632.50;4969948;28;20188;-63